createdAt,value
2019-03-24T00:00:59.280Z,1024.51
2019-03-24T00:01:59.258Z,1024.51
2019-03-24T00:02:59.253Z,1024.57
2019-03-24T00:03:59.238Z,1024.50
2019-03-24T00:04:59.234Z,1024.55
2019-03-24T00:05:59.217Z,1024.46
2019-03-24T00:06:59.212Z,1024.54
2019-03-24T00:07:59.226Z,1024.50
2019-03-24T00:08:59.188Z,1024.43
2019-03-24T00:09:59.188Z,1024.48
2019-03-24T00:10:59.155Z,1024.45
2019-03-24T00:11:59.156Z,1024.43
2019-03-24T00:12:59.173Z,1024.51
2019-03-24T00:13:59.130Z,1024.40
2019-03-24T00:14:59.114Z,1024.41
2019-03-24T00:15:59.117Z,1024.48
2019-03-24T00:16:59.103Z,1024.45
2019-03-24T00:17:59.094Z,1024.38
2019-03-24T00:18:59.076Z,1024.46
2019-03-24T00:19:59.065Z,1024.44
2019-03-24T00:20:59.047Z,1024.45
2019-03-24T00:23:15.569Z,1024.41
2019-03-24T00:24:15.551Z,1024.50
2019-03-24T00:25:15.542Z,1024.50
2019-03-24T00:26:15.529Z,1024.53
2019-03-24T00:27:15.519Z,1024.51
2019-03-24T00:28:15.519Z,1024.53
2019-03-24T00:29:15.499Z,1024.52
2019-03-24T00:30:15.492Z,1024.54
2019-03-24T00:31:15.477Z,1024.56
2019-03-24T00:32:15.469Z,1024.52
2019-03-24T00:33:15.464Z,1024.48
2019-03-24T00:34:15.444Z,1024.46
2019-03-24T00:35:15.446Z,1024.50
2019-03-24T00:36:15.426Z,1024.42
2019-03-24T00:37:15.412Z,1024.45
2019-03-24T00:38:15.410Z,1024.51
2019-03-24T00:39:15.392Z,1024.49
2019-03-24T00:40:15.381Z,1024.47
2019-03-24T00:41:15.383Z,1024.46
2019-03-24T00:42:15.359Z,1024.40
2019-03-24T00:43:15.361Z,1024.45
2019-03-24T00:44:15.339Z,1024.49
2019-03-24T00:45:15.328Z,1024.48
2019-03-24T00:46:15.319Z,1024.52
2019-03-24T00:47:15.303Z,1024.48
2019-03-24T00:48:15.304Z,1024.44
2019-03-24T00:49:15.282Z,1024.40
2019-03-24T00:50:15.270Z,1024.44
2019-03-24T00:51:15.262Z,1024.47
2019-03-24T00:52:15.249Z,1024.48
2019-03-24T00:53:15.251Z,1024.47
2019-03-24T00:54:15.227Z,1024.47
2019-03-24T00:55:15.216Z,1024.52
2019-03-24T00:56:15.211Z,1024.53
2019-03-24T00:57:15.196Z,1024.58
2019-03-24T00:58:15.203Z,1024.61
2019-03-24T00:59:15.172Z,1024.54
2019-03-24T01:00:15.162Z,1024.53
2019-03-24T01:01:15.153Z,1024.56
2019-03-24T01:02:15.146Z,1024.53
2019-03-24T01:03:15.154Z,1024.56
2019-03-24T01:04:15.121Z,1024.52
2019-03-24T01:05:15.108Z,1024.50
2019-03-24T01:06:15.098Z,1024.50
2019-03-24T01:07:15.088Z,1024.49
2019-03-24T01:08:15.096Z,1024.49
2019-03-24T01:09:15.068Z,1024.48
2019-03-24T01:10:15.057Z,1024.48
2019-03-24T01:11:15.047Z,1024.47
2019-03-24T01:12:15.035Z,1024.45
2019-03-24T01:13:15.034Z,1024.42
2019-03-24T01:14:15.012Z,1024.46
2019-03-24T01:15:15.019Z,1024.44
2019-03-24T01:16:14.993Z,1024.43
2019-03-24T01:17:14.984Z,1024.41
2019-03-24T01:18:14.969Z,1024.41
2019-03-24T01:19:14.981Z,1024.45
2019-03-24T01:20:14.950Z,1024.38
2019-03-24T01:21:14.939Z,1024.39
2019-03-24T01:22:14.932Z,1024.36
2019-03-24T01:23:14.925Z,1024.35
2019-03-24T01:24:14.919Z,1024.45
2019-03-24T01:25:14.895Z,1024.31
2019-03-24T01:26:14.899Z,1024.36
2019-03-24T01:27:14.874Z,1024.31
2019-03-24T01:28:14.871Z,1024.29
2019-03-24T01:29:14.864Z,1024.31
2019-03-24T01:30:14.842Z,1024.35
2019-03-24T01:31:14.832Z,1024.38
2019-03-24T01:32:14.825Z,1024.31
2019-03-24T01:33:14.813Z,1024.27
2019-03-24T01:34:14.818Z,1024.31
2019-03-24T01:35:14.790Z,1024.34
2019-03-24T01:36:14.782Z,1024.26
2019-03-24T01:37:14.770Z,1024.19
2019-03-24T01:38:14.763Z,1024.25
2019-03-24T01:39:14.756Z,1024.21
2019-03-24T01:40:14.745Z,1024.22
2019-03-24T01:41:14.725Z,1024.24
2019-03-24T01:42:14.720Z,1024.17
2019-03-24T01:43:14.713Z,1024.18
2019-03-24T01:44:14.702Z,1024.23
2019-03-24T01:45:14.684Z,1024.26
2019-03-24T01:46:14.670Z,1024.22
2019-03-24T01:47:14.662Z,1024.28
2019-03-24T01:48:14.649Z,1024.29
2019-03-24T01:49:14.654Z,1024.19
2019-03-24T01:50:14.630Z,1024.26
2019-03-24T01:51:14.621Z,1024.22
2019-03-24T01:52:14.620Z,1024.22
2019-03-24T01:53:14.597Z,1024.23
2019-03-24T01:54:14.597Z,1024.21
2019-03-24T01:55:14.575Z,1024.18
2019-03-24T01:56:14.565Z,1024.24
2019-03-24T01:57:14.557Z,1024.19
2019-03-24T01:58:14.544Z,1024.17
2019-03-24T01:59:14.541Z,1024.19
2019-03-24T02:00:14.521Z,1024.16
2019-03-24T02:01:14.513Z,1024.19
2019-03-24T02:02:14.499Z,1024.21
2019-03-24T02:03:14.494Z,1024.17
2019-03-24T02:04:14.491Z,1024.12
2019-03-24T02:05:14.471Z,1024.15
2019-03-24T02:06:14.456Z,1024.18
2019-03-24T02:07:14.450Z,1024.15
2019-03-24T02:08:14.437Z,1024.16
2019-03-24T02:09:14.443Z,1024.13
2019-03-24T02:10:14.415Z,1024.13
2019-03-24T02:11:14.407Z,1024.16
2019-03-24T02:12:14.394Z,1024.11
2019-03-24T02:13:14.422Z,1024.12
2019-03-24T02:14:14.380Z,1024.16
2019-03-24T02:15:14.366Z,1024.17
2019-03-24T02:16:14.355Z,1024.18
2019-03-24T02:17:14.339Z,1024.14
2019-03-24T02:18:14.330Z,1024.11
2019-03-24T02:19:14.327Z,1024.15
2019-03-24T02:20:14.309Z,1024.14
2019-03-24T02:21:14.301Z,1024.10
2019-03-24T02:22:14.286Z,1024.11
2019-03-24T02:23:14.275Z,1024.13
2019-03-24T02:24:14.298Z,1024.12
2019-03-24T02:25:14.259Z,1024.06
2019-03-24T02:26:14.241Z,1024.08
2019-03-24T02:27:14.231Z,1024.08
2019-03-24T02:28:14.221Z,1024.02
2019-03-24T02:29:14.224Z,1024.08
2019-03-24T02:30:14.208Z,1024.05
2019-03-24T02:31:14.187Z,1024.05
2019-03-24T02:32:14.181Z,1024.06
2019-03-24T02:33:14.174Z,1024.07
2019-03-24T02:34:14.159Z,1024.09
2019-03-24T02:35:14.162Z,1024.13
2019-03-24T02:36:14.134Z,1024.08
2019-03-24T02:37:14.128Z,1024.17
2019-03-24T02:38:14.111Z,1024.16
2019-03-24T02:39:14.102Z,1024.16
2019-03-24T02:40:14.101Z,1024.13
2019-03-24T02:41:14.082Z,1024.14
2019-03-24T02:42:14.073Z,1024.12
2019-03-24T02:43:14.060Z,1024.08
2019-03-24T02:44:14.048Z,1024.07
2019-03-24T02:45:14.047Z,1024.06
2019-03-24T02:46:24.254Z,1024.12
2019-03-24T02:47:15.018Z,1024.05
2019-03-24T02:48:14.015Z,1024.02
2019-03-24T02:49:13.994Z,1024.00
2019-03-24T02:50:13.993Z,1023.98
2019-03-24T02:51:13.975Z,1024.00
2019-03-24T02:52:13.962Z,1023.95
2019-03-24T02:53:13.951Z,1023.93
2019-03-24T02:54:13.941Z,1023.90
2019-03-24T02:55:13.949Z,1023.99
2019-03-24T02:56:13.933Z,1023.86
2019-03-24T02:57:13.913Z,1023.93
2019-03-24T02:58:13.897Z,1023.85
2019-03-24T02:59:13.893Z,1023.85
2019-03-24T03:00:13.906Z,1023.90
2019-03-24T03:01:13.867Z,1023.88
2019-03-24T03:02:13.859Z,1023.88
2019-03-24T03:03:13.859Z,1023.92
2019-03-24T03:04:13.832Z,1023.87
2019-03-24T03:05:13.832Z,1023.84
2019-03-24T03:06:13.813Z,1023.95
2019-03-24T03:07:13.800Z,1023.97
2019-03-24T03:08:13.797Z,1023.94
2019-03-24T03:09:13.869Z,1023.92
2019-03-24T03:10:13.781Z,1023.96
2019-03-24T03:11:13.765Z,1023.93
2019-03-24T03:12:13.748Z,1023.96
2019-03-24T03:13:13.741Z,1023.99
2019-03-24T03:14:13.727Z,1024.00
2019-03-24T03:15:13.724Z,1023.99
2019-03-24T03:16:13.704Z,1024.00
2019-03-24T03:17:13.696Z,1024.03
2019-03-24T03:18:13.684Z,1023.98
2019-03-24T03:19:13.673Z,1024.02
2019-03-24T03:20:13.672Z,1023.99
2019-03-24T03:21:13.649Z,1023.93
2019-03-24T03:22:13.640Z,1023.98
2019-03-24T03:23:13.635Z,1023.97
2019-03-24T03:24:13.620Z,1023.91
2019-03-24T03:25:13.630Z,1023.98
2019-03-24T03:26:13.596Z,1023.94
2019-03-24T03:27:13.587Z,1023.93
2019-03-24T03:28:13.577Z,1023.91
2019-03-24T03:29:13.564Z,1023.91
2019-03-24T03:30:13.564Z,1023.90
2019-03-24T03:31:13.575Z,1023.94
2019-03-24T03:32:13.535Z,1023.93
2019-03-24T03:33:13.538Z,1023.91
2019-03-24T03:34:13.537Z,1023.92
2019-03-24T03:35:13.500Z,1023.89
2019-03-24T03:36:13.509Z,1023.93
2019-03-24T03:37:13.480Z,1023.89
2019-03-24T03:38:13.469Z,1023.92
2019-03-24T03:39:13.485Z,1023.91
2019-03-24T03:40:13.448Z,1023.93
2019-03-24T03:41:13.449Z,1023.91
2019-03-24T03:42:13.431Z,1023.92
2019-03-24T03:43:13.418Z,1023.90
2019-03-24T03:44:13.406Z,1023.90
2019-03-24T03:45:13.401Z,1023.91
2019-03-24T03:46:13.393Z,1023.87
2019-03-24T03:47:13.373Z,1023.80
2019-03-24T03:48:13.364Z,1023.86
2019-03-24T03:49:13.354Z,1023.83
2019-03-24T03:50:13.337Z,1023.83
2019-03-24T03:51:13.339Z,1023.82
2019-03-24T03:52:13.363Z,1023.80
2019-03-24T03:53:13.314Z,1023.78
2019-03-24T03:54:13.296Z,1023.80
2019-03-24T03:55:13.288Z,1023.86
2019-03-24T03:56:13.285Z,1023.81
2019-03-24T03:57:13.264Z,1023.77
2019-03-24T03:58:13.259Z,1023.79
2019-03-24T03:59:13.245Z,1023.82
2019-03-24T04:00:13.233Z,1023.77
2019-03-24T04:01:13.232Z,1023.76
2019-03-24T04:02:13.210Z,1023.77
2019-03-24T04:03:13.203Z,1023.73
2019-03-24T04:04:13.190Z,1023.82
2019-03-24T04:05:13.178Z,1023.74
2019-03-24T04:06:13.180Z,1023.74
2019-03-24T04:07:13.157Z,1023.78
2019-03-24T04:08:13.151Z,1023.78
2019-03-24T04:09:13.142Z,1023.73
2019-03-24T04:10:13.127Z,1023.74
2019-03-24T04:11:13.123Z,1023.71
2019-03-24T04:12:13.102Z,1023.75
2019-03-24T04:13:13.094Z,1023.74
2019-03-24T04:14:13.081Z,1023.68
2019-03-24T04:15:13.078Z,1023.74
2019-03-24T04:16:13.077Z,1023.74
2019-03-24T04:17:13.051Z,1023.71
2019-03-24T04:18:13.041Z,1023.74
2019-03-24T04:19:13.056Z,1023.75
2019-03-24T04:20:13.018Z,1023.76
2019-03-24T04:21:13.020Z,1023.76
2019-03-24T04:22:12.997Z,1023.74
2019-03-24T04:23:12.992Z,1023.76
2019-03-24T04:24:12.978Z,1023.76
2019-03-24T04:25:12.973Z,1023.69
2019-03-24T04:26:12.966Z,1023.76
2019-03-24T04:27:12.943Z,1023.69
2019-03-24T04:28:12.932Z,1023.73
2019-03-24T04:29:12.930Z,1023.70
2019-03-24T04:30:12.913Z,1023.69
2019-03-24T04:31:12.926Z,1023.72
2019-03-24T04:32:12.889Z,1023.75
2019-03-24T04:33:12.876Z,1023.70
2019-03-24T04:34:12.877Z,1023.77
2019-03-24T04:35:12.860Z,1023.75
2019-03-24T04:36:12.855Z,1023.68
2019-03-24T04:37:12.836Z,1023.71
2019-03-24T04:38:12.829Z,1023.68
2019-03-24T04:39:12.820Z,1023.71
2019-03-24T04:40:12.803Z,1023.68
2019-03-24T04:41:12.815Z,1023.69
2019-03-24T04:42:12.782Z,1023.74
2019-03-24T04:43:12.777Z,1023.69
2019-03-24T04:44:12.759Z,1023.76
2019-03-24T04:45:12.748Z,1023.78
2019-03-24T04:46:12.741Z,1023.78
2019-03-24T04:47:16.834Z,1023.78
2019-03-24T04:48:12.718Z,1023.76
2019-03-24T04:49:12.725Z,1023.79
2019-03-24T04:50:12.695Z,1023.74
2019-03-24T04:51:12.685Z,1023.75
2019-03-24T04:52:12.684Z,1023.74
2019-03-24T04:53:12.666Z,1023.74
2019-03-24T04:54:12.659Z,1023.69
2019-03-24T04:55:12.643Z,1023.70
2019-03-24T04:56:12.632Z,1023.69
2019-03-24T04:57:12.633Z,1023.68
2019-03-24T04:58:12.609Z,1023.70
2019-03-24T04:59:12.604Z,1023.62
2019-03-24T05:00:12.595Z,1023.65
2019-03-24T05:01:12.580Z,1023.62
2019-03-24T05:02:12.578Z,1023.56
2019-03-24T05:03:12.557Z,1023.57
2019-03-24T05:04:12.547Z,1023.62
2019-03-24T05:05:12.543Z,1023.59
2019-03-24T05:06:13.301Z,1023.55
2019-03-24T05:07:12.528Z,1023.51
2019-03-24T05:08:12.506Z,1023.52
2019-03-24T05:09:12.496Z,1023.57
2019-03-24T05:10:12.485Z,1023.60
2019-03-24T05:11:12.472Z,1023.55
2019-03-24T05:12:12.477Z,1023.55
2019-03-24T05:13:12.452Z,1023.54
2019-03-24T05:14:12.440Z,1023.62
2019-03-24T05:15:12.428Z,1023.48
2019-03-24T05:16:12.418Z,1023.55
2019-03-24T05:17:12.417Z,1023.55
2019-03-24T05:18:12.403Z,1023.52
2019-03-24T05:19:12.386Z,1023.52
2019-03-24T05:20:12.377Z,1023.48
2019-03-24T05:21:12.363Z,1023.52
2019-03-24T05:22:12.366Z,1023.47
2019-03-24T05:23:12.349Z,1023.52
2019-03-24T05:24:12.334Z,1023.46
2019-03-24T05:25:12.325Z,1023.56
2019-03-24T05:26:12.311Z,1023.54
2019-03-24T05:27:12.310Z,1023.53
2019-03-24T05:28:12.290Z,1023.52
2019-03-24T05:29:12.276Z,1023.48
2019-03-24T05:30:12.268Z,1023.53
2019-03-24T05:31:12.256Z,1023.55
2019-03-24T05:32:12.260Z,1023.53
2019-03-24T05:33:12.238Z,1023.55
2019-03-24T05:34:12.224Z,1023.56
2019-03-24T05:35:12.213Z,1023.55
2019-03-24T05:36:12.201Z,1023.57
2019-03-24T05:37:12.202Z,1023.55
2019-03-24T05:38:12.181Z,1023.53
2019-03-24T05:39:12.171Z,1023.55
2019-03-24T05:40:12.160Z,1023.52
2019-03-24T05:41:12.149Z,1023.56
2019-03-24T05:42:12.149Z,1023.50
2019-03-24T05:43:12.131Z,1023.59
2019-03-24T05:44:12.117Z,1023.57
2019-03-24T05:45:12.107Z,1023.58
2019-03-24T05:46:12.098Z,1023.52
2019-03-24T05:47:12.097Z,1023.55
2019-03-24T05:48:12.073Z,1023.53
2019-03-24T05:49:12.062Z,1023.53
2019-03-24T05:50:12.051Z,1023.54
2019-03-24T05:51:12.043Z,1023.54
2019-03-24T05:52:12.043Z,1023.55
2019-03-24T05:53:12.025Z,1023.57
2019-03-24T05:54:12.017Z,1023.59
2019-03-24T05:55:12.002Z,1023.52
2019-03-24T05:56:11.991Z,1023.59
2019-03-24T05:57:11.983Z,1023.59
2019-03-24T05:58:11.981Z,1023.66
2019-03-24T05:59:11.956Z,1023.64
2019-03-24T06:00:11.947Z,1023.64
2019-03-24T06:01:11.935Z,1023.60
2019-03-24T06:02:11.927Z,1023.58
2019-03-24T06:03:11.928Z,1023.56
2019-03-24T06:04:11.906Z,1023.55
2019-03-24T06:05:11.895Z,1023.60
2019-03-24T06:06:11.887Z,1023.55
2019-03-24T06:07:11.872Z,1023.59
2019-03-24T06:08:11.872Z,1023.57
2019-03-24T06:09:11.849Z,1023.57
2019-03-24T06:10:11.843Z,1023.52
2019-03-24T06:11:11.831Z,1023.55
2019-03-24T06:12:11.817Z,1023.53
2019-03-24T06:13:11.819Z,1023.51
2019-03-24T06:14:11.796Z,1023.53
2019-03-24T06:15:11.786Z,1023.54
2019-03-24T06:16:11.777Z,1023.59
2019-03-24T06:17:11.764Z,1023.53
2019-03-24T06:18:11.767Z,1023.54
2019-03-24T06:19:11.743Z,1023.50
2019-03-24T06:20:11.732Z,1023.55
2019-03-24T06:21:11.723Z,1023.43
2019-03-24T06:22:11.708Z,1023.50
2019-03-24T06:23:20.375Z,1023.50
2019-03-24T06:24:11.710Z,1023.43
2019-03-24T06:25:11.681Z,1023.39
2019-03-24T06:26:11.667Z,1023.42
2019-03-24T06:27:11.656Z,1023.37
2019-03-24T06:28:11.655Z,1023.37
2019-03-24T06:29:11.645Z,1023.37
2019-03-24T06:30:11.630Z,1023.36
2019-03-24T06:31:11.612Z,1023.39
2019-03-24T06:32:11.603Z,1023.38
2019-03-24T06:33:11.609Z,1023.41
2019-03-24T06:34:11.585Z,1023.43
2019-03-24T06:35:11.580Z,1023.37
2019-03-24T06:36:11.564Z,1023.35
2019-03-24T06:37:11.550Z,1023.33
2019-03-24T06:38:11.546Z,1023.30
2019-03-24T06:39:11.526Z,1023.32
2019-03-24T06:40:11.518Z,1023.33
2019-03-24T06:41:11.507Z,1023.32
2019-03-24T06:42:11.494Z,1023.25
2019-03-24T06:43:11.546Z,1023.23
2019-03-24T06:44:11.476Z,1023.24
2019-03-24T06:45:11.464Z,1023.20
2019-03-24T06:46:11.453Z,1023.24
2019-03-24T06:47:11.441Z,1023.24
2019-03-24T06:48:11.443Z,1023.25
2019-03-24T06:49:11.427Z,1023.18
2019-03-24T06:50:11.409Z,1023.26
2019-03-24T06:51:11.405Z,1023.21
2019-03-24T06:52:11.390Z,1023.26
2019-03-24T06:53:11.430Z,1023.24
2019-03-24T06:54:11.365Z,1023.24
2019-03-24T06:55:11.355Z,1023.29
2019-03-24T06:56:11.343Z,1023.27
2019-03-24T06:57:11.342Z,1023.29
2019-03-24T06:58:11.354Z,1023.29
2019-03-24T06:59:11.312Z,1023.33
2019-03-24T07:00:11.304Z,1023.32
2019-03-24T07:01:11.289Z,1023.35
2019-03-24T07:02:11.280Z,1023.39
2019-03-24T07:03:11.272Z,1023.33
2019-03-24T07:04:11.265Z,1023.33
2019-03-24T07:05:11.247Z,1023.30
2019-03-24T07:06:11.242Z,1023.29
2019-03-24T07:07:11.227Z,1023.24
2019-03-24T07:08:11.216Z,1023.24
2019-03-24T07:09:11.213Z,1023.24
2019-03-24T07:10:11.193Z,1023.24
2019-03-24T07:11:13.641Z,1023.30
2019-03-24T07:12:11.170Z,1023.29
2019-03-24T07:13:11.157Z,1023.34
2019-03-24T07:14:11.174Z,1023.32
2019-03-24T07:15:11.138Z,1023.34
2019-03-24T07:16:11.139Z,1023.31
2019-03-24T07:17:11.114Z,1023.30
2019-03-24T07:18:11.106Z,1023.34
2019-03-24T07:19:11.103Z,1023.30
2019-03-24T07:20:11.084Z,1023.33
2019-03-24T07:21:11.071Z,1023.27
2019-03-24T07:22:11.062Z,1023.29
2019-03-24T07:23:11.050Z,1023.26
2019-03-24T07:24:11.053Z,1023.24
2019-03-24T07:25:11.036Z,1023.26
2019-03-24T07:26:11.019Z,1023.27
2019-03-24T07:27:11.008Z,1023.32
2019-03-24T07:28:10.998Z,1023.38
2019-03-24T07:29:10.997Z,1023.26
2019-03-24T07:30:10.977Z,1023.44
2019-03-24T07:31:10.972Z,1023.37
2019-03-24T07:32:10.954Z,1023.55
2019-03-24T07:33:10.946Z,1023.33
2019-03-24T07:34:10.943Z,1023.34
2019-03-24T07:35:10.926Z,1023.30
2019-03-24T07:36:10.919Z,1023.63
2019-03-24T07:37:10.902Z,1023.44
2019-03-24T07:38:10.890Z,1023.46
2019-03-24T07:39:10.892Z,1023.43
2019-03-24T07:40:10.874Z,1023.42
2019-03-24T07:41:10.863Z,1023.33
2019-03-24T07:42:10.846Z,1023.27
2019-03-24T07:43:10.837Z,1023.37
2019-03-24T07:44:10.839Z,1023.27
2019-03-24T07:45:10.820Z,1023.26
2019-03-24T07:46:10.803Z,1023.19
2019-03-24T07:47:10.800Z,1023.39
2019-03-24T07:48:18.661Z,1023.28
2019-03-24T07:49:11.784Z,1023.37
2019-03-24T07:50:10.759Z,1023.58
2019-03-24T07:51:10.753Z,1023.36
2019-03-24T07:52:10.739Z,1023.40
2019-03-24T07:53:11.172Z,1023.42
2019-03-24T07:54:10.730Z,1023.48
2019-03-24T07:55:10.706Z,1023.41
2019-03-24T07:56:10.702Z,1023.67
2019-03-24T07:57:10.694Z,1023.76
2019-03-24T07:58:10.675Z,1023.56
2019-03-24T07:59:10.682Z,1023.71
2019-03-24T08:00:10.659Z,1023.50
2019-03-24T08:01:10.641Z,1023.72
2019-03-24T08:02:10.634Z,1023.78
2019-03-24T08:03:10.620Z,1023.81
2019-03-24T08:04:10.635Z,1023.75
2019-03-24T08:05:10.599Z,1023.90
2019-03-24T08:06:11.404Z,1023.94
2019-03-24T08:07:10.604Z,1023.98
2019-03-24T08:08:11.361Z,1024.02
2019-03-24T08:09:10.559Z,1023.73
2019-03-24T08:10:10.562Z,1023.79
2019-03-24T08:11:10.543Z,1023.96
2019-03-24T08:12:10.566Z,1023.63
2019-03-24T08:13:10.643Z,1023.57
2019-03-24T08:14:10.504Z,1023.98
2019-03-24T08:15:10.502Z,1023.73
2019-03-24T08:16:10.482Z,1023.61
2019-03-24T08:17:10.472Z,1023.71
2019-03-24T08:18:10.466Z,1023.51
2019-03-24T08:19:10.468Z,1023.44
2019-03-24T08:20:12.337Z,1023.44
2019-03-24T08:21:10.431Z,1023.39
2019-03-24T08:22:11.370Z,1023.32
2019-03-24T08:23:10.417Z,1023.27
2019-03-24T08:24:10.399Z,1023.32
2019-03-24T08:25:10.403Z,1023.25
2019-03-24T08:26:10.377Z,1023.27
2019-03-24T08:27:10.365Z,1023.28
2019-03-24T08:28:10.358Z,1023.35
2019-03-24T08:29:10.345Z,1023.38
2019-03-24T08:30:10.348Z,1023.41
2019-03-24T08:31:10.324Z,1023.19
2019-03-24T08:32:10.313Z,1023.35
2019-03-24T08:33:10.302Z,1023.17
2019-03-24T08:34:10.296Z,1023.02
2019-03-24T08:35:10.292Z,1022.93
2019-03-24T08:36:10.269Z,1022.89
2019-03-24T08:37:10.258Z,1022.92
2019-03-24T08:38:10.248Z,1022.86
2019-03-24T08:39:10.238Z,1022.91
2019-03-24T08:40:10.241Z,1022.88
2019-03-24T08:41:10.219Z,1022.95
2019-03-24T08:42:10.221Z,1022.89
2019-03-24T08:43:10.195Z,1022.88
2019-03-24T08:44:10.185Z,1023.06
2019-03-24T08:45:10.190Z,1023.08
2019-03-24T08:46:10.165Z,1022.97
2019-03-24T08:47:10.156Z,1022.91
2019-03-24T08:48:10.144Z,1022.95
2019-03-24T08:49:10.133Z,1022.99
2019-03-24T08:50:10.131Z,1022.95
2019-03-24T08:51:10.119Z,1023.01
2019-03-24T08:52:10.099Z,1022.99
2019-03-24T08:53:10.089Z,1022.98
2019-03-24T08:54:10.078Z,1023.04
2019-03-24T08:55:10.092Z,1023.03
2019-03-24T08:56:10.098Z,1022.89
2019-03-24T08:57:10.047Z,1022.80
2019-03-24T08:58:10.040Z,1022.82
2019-03-24T08:59:10.030Z,1022.83
2019-03-24T09:00:10.031Z,1022.79
2019-03-24T09:01:10.014Z,1022.74
2019-03-24T09:02:09.994Z,1022.73
2019-03-24T09:03:10.149Z,1022.74
2019-03-24T09:04:09.976Z,1022.71
2019-03-24T09:05:09.989Z,1022.75
2019-03-24T09:06:09.955Z,1022.73
2019-03-24T09:07:09.944Z,1022.63
2019-03-24T09:08:09.933Z,1022.60
2019-03-24T09:09:09.938Z,1022.50
2019-03-24T09:10:09.913Z,1022.47
2019-03-24T09:11:09.956Z,1022.44
2019-03-24T09:12:09.891Z,1022.37
2019-03-24T09:13:09.880Z,1022.44
2019-03-24T09:14:09.872Z,1022.36
2019-03-24T09:15:09.860Z,1022.42
2019-03-24T09:16:09.877Z,1022.35
2019-03-24T09:17:09.848Z,1022.42
2019-03-24T09:18:09.827Z,1022.38
2019-03-24T09:19:09.818Z,1022.39
2019-03-24T09:20:09.812Z,1022.37
2019-03-24T09:21:09.811Z,1022.35
2019-03-24T09:22:09.786Z,1022.36
2019-03-24T09:23:10.717Z,1022.33
2019-03-24T09:24:09.761Z,1022.39
2019-03-24T09:25:09.757Z,1022.35
2019-03-24T09:26:09.753Z,1022.28
2019-03-24T09:27:09.732Z,1022.38
2019-03-24T09:28:09.720Z,1022.29
2019-03-24T09:29:09.710Z,1022.29
2019-03-24T09:30:09.697Z,1022.35
2019-03-24T09:31:09.702Z,1022.28
2019-03-24T09:32:09.677Z,1022.29
2019-03-24T09:33:09.676Z,1022.30
2019-03-24T09:34:09.665Z,1022.33
2019-03-24T09:35:09.647Z,1022.33
2019-03-24T09:36:09.645Z,1022.30
2019-03-24T09:37:09.631Z,1022.24
2019-03-24T09:38:09.618Z,1022.26
2019-03-24T09:39:09.604Z,1022.23
2019-03-24T09:40:09.591Z,1022.19
2019-03-24T09:41:09.589Z,1022.18
2019-03-24T09:42:10.402Z,1022.20
2019-03-24T09:43:09.560Z,1022.12
2019-03-24T09:44:09.548Z,1022.17
2019-03-24T09:45:09.539Z,1022.18
2019-03-24T09:46:09.542Z,1022.13
2019-03-24T09:47:09.518Z,1022.14
2019-03-24T09:48:09.507Z,1022.15
2019-03-24T09:49:09.498Z,1022.14
2019-03-24T09:50:09.487Z,1022.14
2019-03-24T09:51:09.482Z,1022.08
2019-03-24T09:52:09.465Z,1022.05
2019-03-24T09:53:09.456Z,1022.09
2019-03-24T09:54:09.445Z,1022.13
2019-03-24T09:55:09.436Z,1022.13
2019-03-24T09:56:09.430Z,1022.09
2019-03-24T09:57:09.412Z,1022.08
2019-03-24T09:58:09.401Z,1022.11
2019-03-24T09:59:09.407Z,1022.12
2019-03-24T10:00:09.384Z,1022.03
2019-03-24T10:01:09.378Z,1022.03
2019-03-24T10:02:09.357Z,1022.01
2019-03-24T10:03:09.348Z,1022.02
2019-03-24T10:04:09.342Z,1021.97
2019-03-24T10:05:09.333Z,1022.01
2019-03-24T10:06:09.331Z,1021.96
2019-03-24T10:07:09.304Z,1021.92
2019-03-24T10:08:09.298Z,1021.91
2019-03-24T10:09:09.283Z,1021.94
2019-03-24T10:10:09.270Z,1021.90
2019-03-24T10:11:09.274Z,1021.89
2019-03-24T10:12:09.256Z,1021.81
2019-03-24T10:13:09.244Z,1021.78
2019-03-24T10:14:09.331Z,1021.97
2019-03-24T10:15:09.225Z,1021.96
2019-03-24T10:16:09.265Z,1021.87
2019-03-24T10:17:09.215Z,1021.88
2019-03-24T10:18:09.204Z,1021.83
2019-03-24T10:19:14.075Z,1021.81
2019-03-24T10:20:10.168Z,1021.73
2019-03-24T10:21:09.157Z,1021.69
2019-03-24T10:22:09.159Z,1021.68
2019-03-24T10:23:09.162Z,1021.75
2019-03-24T10:24:09.148Z,1021.75
2019-03-24T10:25:09.117Z,1021.78
2019-03-24T10:26:09.131Z,1021.86
2019-03-24T10:27:09.109Z,1021.84
2019-03-24T10:28:09.083Z,1021.81
2019-03-24T10:29:09.081Z,1021.84
2019-03-24T10:30:09.128Z,1021.95
2019-03-24T10:31:09.079Z,1022.01
2019-03-24T10:32:09.077Z,1022.10
2019-03-24T10:33:09.036Z,1021.97
2019-03-24T10:34:09.051Z,1022.10
2019-03-24T10:35:09.028Z,1022.13
2019-03-24T10:36:09.130Z,1022.13
2019-03-24T10:37:09.010Z,1022.14
2019-03-24T10:38:08.999Z,1022.07
2019-03-24T10:39:08.976Z,1021.89
2019-03-24T10:40:08.977Z,1021.88
2019-03-24T10:41:09.018Z,1021.97
2019-03-24T10:42:08.992Z,1022.08
2019-03-24T10:43:08.941Z,1022.14
2019-03-24T10:44:08.951Z,1022.10
2019-03-24T10:45:08.919Z,1022.09
2019-03-24T10:46:08.908Z,1022.02
2019-03-24T10:47:08.914Z,1022.01
2019-03-24T10:48:08.886Z,1022.13
2019-03-24T10:49:08.884Z,1022.11
2019-03-24T10:50:08.867Z,1022.06
2019-03-24T10:51:08.860Z,1022.06
2019-03-24T10:52:08.859Z,1022.06
2019-03-24T10:53:08.846Z,1022.05
2019-03-24T10:54:08.829Z,1021.99
2019-03-24T10:55:08.828Z,1021.91
2019-03-24T10:56:08.815Z,1021.93
2019-03-24T10:57:08.845Z,1022.00
2019-03-24T10:58:08.792Z,1021.85
2019-03-24T10:59:08.784Z,1021.80
2019-03-24T11:00:08.769Z,1021.68
2019-03-24T11:01:08.762Z,1021.72
2019-03-24T11:02:08.766Z,1021.69
2019-03-24T11:03:08.747Z,1021.67
2019-03-24T11:04:08.732Z,1021.71
2019-03-24T11:05:08.729Z,1021.70
2019-03-24T11:06:08.713Z,1021.65
2019-03-24T11:07:09.078Z,1021.60
2019-03-24T11:08:08.703Z,1021.55
2019-03-24T11:09:08.683Z,1021.49
2019-03-24T11:10:08.686Z,1021.47
2019-03-24T11:11:08.678Z,1021.50
2019-03-24T11:12:08.660Z,1021.43
2019-03-24T11:13:08.654Z,1021.45
2019-03-24T11:14:08.652Z,1021.51
2019-03-24T11:15:08.651Z,1021.52
2019-03-24T11:16:08.615Z,1021.47
2019-03-24T11:17:08.624Z,1021.47
2019-03-24T11:18:08.623Z,1021.40
2019-03-24T11:19:08.590Z,1021.27
2019-03-24T11:20:08.593Z,1021.10
2019-03-24T11:21:08.942Z,1021.06
2019-03-24T11:22:08.558Z,1021.15
2019-03-24T11:23:08.587Z,1021.36
2019-03-24T11:24:08.539Z,1021.40
2019-03-24T11:25:08.527Z,1021.42
2019-03-24T11:26:08.530Z,1021.43
2019-03-24T11:27:08.507Z,1021.34
2019-03-24T11:28:08.513Z,1021.43
2019-03-24T11:29:08.498Z,1021.34
2019-03-24T11:30:08.486Z,1021.26
2019-03-24T11:31:08.473Z,1021.07
2019-03-24T11:32:08.473Z,1021.09
2019-03-24T11:33:08.476Z,1021.22
2019-03-24T11:34:08.444Z,1021.11
2019-03-24T11:35:08.438Z,1021.15
2019-03-24T11:36:08.423Z,1021.05
2019-03-24T11:37:08.413Z,1020.99
2019-03-24T11:38:08.424Z,1021.10
2019-03-24T11:39:08.391Z,1020.97
2019-03-24T11:40:08.394Z,1020.98
2019-03-24T11:41:08.379Z,1021.21
2019-03-24T11:42:08.377Z,1021.21
2019-03-24T11:43:08.365Z,1021.30
2019-03-24T11:44:08.352Z,1021.31
2019-03-24T11:45:08.340Z,1021.39
2019-03-24T11:46:08.328Z,1021.20
2019-03-24T11:47:08.344Z,1021.34
2019-03-24T11:48:08.339Z,1021.24
2019-03-24T11:49:08.304Z,1021.22
2019-03-24T11:50:08.296Z,1020.93
2019-03-24T11:51:08.281Z,1021.18
2019-03-24T11:52:08.277Z,1021.24
2019-03-24T11:53:08.275Z,1021.13
2019-03-24T11:54:08.256Z,1020.80
2019-03-24T11:55:08.255Z,1020.67
2019-03-24T11:56:08.236Z,1020.60
2019-03-24T11:57:08.238Z,1020.53
2019-03-24T11:58:08.229Z,1020.55
2019-03-24T11:59:08.211Z,1020.54
2019-03-24T12:00:08.274Z,1020.45
2019-03-24T12:01:08.201Z,1020.52
2019-03-24T12:02:08.180Z,1020.46
2019-03-24T12:03:08.182Z,1020.83
2019-03-24T12:04:08.165Z,1020.43
2019-03-24T12:05:08.152Z,1020.31
2019-03-24T12:06:14.363Z,1020.35
2019-03-24T12:07:09.145Z,1020.38